sensor_id;sensor_type;location;lat;lon;timestamp;pressure;altitude;pressure_sealevel;temperature;humidity
22018;BME280;11173;51.050;7.108;2023-11-19T00:09:01;98967.88;;;8.97;82.65
22018;BME280;11173;51.050;7.108;2023-11-19T00:19:01;98956.97;;;9.06;83.02
22018;BME280;11173;51.050;7.108;2023-11-19T00:29:01;98911.13;;;9.14;82.74
22018;BME280;11173;51.050;7.108;2023-11-19T00:39:02;98935.25;;;9.21;83.05
22018;BME280;11173;51.050;7.108;2023-11-19T00:49:02;98942.13;;;9.32;83.08
22018;BME280;11173;51.050;7.108;2023-11-19T00:59:03;98934.78;;;9.42;83.30
22018;BME280;11173;51.050;7.108;2023-11-19T01:09:04;98926.97;;;9.53;83.38
22018;BME280;11173;51.050;7.108;2023-11-19T01:19:04;98912.84;;;9.64;83.01
22018;BME280;11173;51.050;7.108;2023-11-19T01:29:05;98933.72;;;9.72;83.07
22018;BME280;11173;51.050;7.108;2023-11-19T01:39:05;98931.63;;;9.77;82.70
22018;BME280;11173;51.050;7.108;2023-11-19T01:49:06;98934.78;;;9.79;82.76
22018;BME280;11173;51.050;7.108;2023-11-19T01:59:09;98916.34;;;9.85;82.96
22018;BME280;11173;51.050;7.108;2023-11-19T02:09:11;98929.72;;;9.90;82.70
22018;BME280;11173;51.050;7.108;2023-11-19T02:19:11;98906.53;;;9.97;83.03
22018;BME280;11173;51.050;7.108;2023-11-19T02:29:12;98891.56;;;10.07;83.13
22018;BME280;11173;51.050;7.108;2023-11-19T02:39:13;98876.59;;;10.17;83.38
22018;BME280;11173;51.050;7.108;2023-11-19T02:49:14;98856.00;;;10.31;83.31
22018;BME280;11173;51.050;7.108;2023-11-19T02:59:15;98863.63;;;10.43;83.50
22018;BME280;11173;51.050;7.108;2023-11-19T03:09:27;98862.19;;;10.51;83.34
22018;BME280;11173;51.050;7.108;2023-11-19T03:19:29;98866.00;;;10.58;83.36
22018;BME280;11173;51.050;7.108;2023-11-19T03:29:29;98853.78;;;10.68;83.64
22018;BME280;11173;51.050;7.108;2023-11-19T03:39:30;98842.00;;;10.77;83.30
22018;BME280;11173;51.050;7.108;2023-11-19T03:49:30;98851.38;;;10.83;83.43
22018;BME280;11173;51.050;7.108;2023-11-19T03:59:30;98851.19;;;10.90;83.65
22018;BME280;11173;51.050;7.108;2023-11-19T04:09:31;98855.44;;;10.94;83.15
22018;BME280;11173;51.050;7.108;2023-11-19T04:19:33;98865.16;;;11.03;83.17
22018;BME280;11173;51.050;7.108;2023-11-19T04:29:33;98857.56;;;11.03;82.94
22018;BME280;11173;51.050;7.108;2023-11-19T04:39:34;98865.91;;;11.03;82.77
22018;BME280;11173;51.050;7.108;2023-11-19T04:49:34;98870.72;;;11.03;82.67
22018;BME280;11173;51.050;7.108;2023-11-19T04:59:35;98870.84;;;11.12;82.76
22018;BME280;11173;51.050;7.108;2023-11-19T05:09:35;98861.94;;;11.17;82.42
22018;BME280;11173;51.050;7.108;2023-11-19T05:19:36;98875.34;;;11.22;81.69
22018;BME280;11173;51.050;7.108;2023-11-19T05:29:36;98882.44;;;11.23;81.20
22018;BME280;11173;51.050;7.108;2023-11-19T05:39:39;98881.78;;;11.19;81.17
22018;BME280;11173;51.050;7.108;2023-11-19T05:49:39;98901.97;;;11.23;79.28
22018;BME280;11173;51.050;7.108;2023-11-19T05:59:40;98913.78;;;11.14;79.80
22018;BME280;11173;51.050;7.108;2023-11-19T06:09:40;98919.44;;;11.11;79.75
22018;BME280;11173;51.050;7.108;2023-11-19T06:19:40;98920.69;;;11.10;79.71
22018;BME280;11173;51.050;7.108;2023-11-19T06:29:41;98928.25;;;11.09;79.49
22018;BME280;11173;51.050;7.108;2023-11-19T06:39:42;98933.38;;;11.11;78.83
22018;BME280;11173;51.050;7.108;2023-11-19T06:49:44;98924.44;;;11.03;77.81
22018;BME280;11173;51.050;7.108;2023-11-19T06:59:44;98943.16;;;10.90;76.37
22018;BME280;11173;51.050;7.108;2023-11-19T07:09:44;98941.44;;;10.63;76.43
22018;BME280;11173;51.050;7.108;2023-11-19T07:19:45;98932.63;;;10.35;76.46
22018;BME280;11173;51.050;7.108;2023-11-19T07:29:48;98929.63;;;10.10;76.83
22018;BME280;11173;51.050;7.108;2023-11-19T07:39:48;98943.63;;;9.90;77.41
22018;BME280;11173;51.050;7.108;2023-11-19T07:49:50;98957.03;;;9.79;77.75
22018;BME280;11173;51.050;7.108;2023-11-19T07:59:50;98972.66;;;9.72;78.06
22018;BME280;11173;51.050;7.108;2023-11-19T08:09:51;98984.13;;;9.74;78.25
22018;BME280;11173;51.050;7.108;2023-11-19T08:19:52;98995.19;;;9.78;78.19
22018;BME280;11173;51.050;7.108;2023-11-19T08:29:54;99006.00;;;9.92;79.47
22018;BME280;11173;51.050;7.108;2023-11-19T08:39:56;99003.03;;;10.36;79.69
22018;BME280;11173;51.050;7.108;2023-11-19T08:49:57;99011.53;;;10.78;78.42
22018;BME280;11173;51.050;7.108;2023-11-19T08:59:57;99012.69;;;11.10;76.23
22018;BME280;11173;51.050;7.108;2023-11-19T09:09:57;99000.47;;;11.33;75.08
22018;BME280;11173;51.050;7.108;2023-11-19T09:19:58;99008.84;;;11.62;73.31
22018;BME280;11173;51.050;7.108;2023-11-19T09:29:58;99016.22;;;11.82;71.74
22018;BME280;11173;51.050;7.108;2023-11-19T09:39:59;99005.41;;;11.84;70.13
22018;BME280;11173;51.050;7.108;2023-11-19T09:49:59;99012.34;;;11.92;69.08
22018;BME280;11173;51.050;7.108;2023-11-19T10:00:00;99003.63;;;11.90;69.13
22018;BME280;11173;51.050;7.108;2023-11-19T10:10:02;99004.75;;;12.05;68.22
22018;BME280;11173;51.050;7.108;2023-11-19T10:20:04;98983.53;;;12.08;68.80
22018;BME280;11173;51.050;7.108;2023-11-19T10:30:05;98987.66;;;12.16;69.05
22018;BME280;11173;51.050;7.108;2023-11-19T10:40:07;98977.91;;;12.33;67.39
22018;BME280;11173;51.050;7.108;2023-11-19T10:50:10;98993.66;;;12.27;67.90
22018;BME280;11173;51.050;7.108;2023-11-19T11:00:12;98991.53;;;12.31;67.16
22018;BME280;11173;51.050;7.108;2023-11-19T11:10:19;98988.63;;;12.35;66.73
22018;BME280;11173;51.050;7.108;2023-11-19T11:20:22;98970.19;;;12.50;64.55
22018;BME280;11173;51.050;7.108;2023-11-19T11:41:22;98973.81;;;11.87;65.81
22018;BME280;11173;51.050;7.108;2023-11-19T12:02:00;98944.13;;;11.25;72.17
22018;BME280;11173;51.050;7.108;2023-11-19T12:22:15;98932.72;;;12.00;68.91
22018;BME280;11173;51.050;7.108;2023-11-19T12:32:15;98936.06;;;12.21;65.21
22018;BME280;11173;51.050;7.108;2023-11-19T12:42:16;98931.47;;;12.27;65.91
22018;BME280;11173;51.050;7.108;2023-11-19T12:52:16;98918.94;;;12.31;66.52
22018;BME280;11173;51.050;7.108;2023-11-19T13:02:17;98925.44;;;12.28;66.46
22018;BME280;11173;51.050;7.108;2023-11-19T13:12:17;98913.81;;;12.30;65.62
22018;BME280;11173;51.050;7.108;2023-11-19T13:22:17;98919.47;;;12.39;66.84
22018;BME280;11173;51.050;7.108;2023-11-19T13:32:18;98921.72;;;12.44;66.00
22018;BME280;11173;51.050;7.108;2023-11-19T13:42:18;98914.69;;;12.40;64.61
22018;BME280;11173;51.050;7.108;2023-11-19T13:52:18;98921.88;;;12.28;65.41
22018;BME280;11173;51.050;7.108;2023-11-19T14:02:19;98900.63;;;12.30;65.01
22018;BME280;11173;51.050;7.108;2023-11-19T14:12:20;98892.16;;;12.21;64.60
22018;BME280;11173;51.050;7.108;2023-11-19T14:22:20;98899.00;;;12.07;66.44
22018;BME280;11173;51.050;7.108;2023-11-19T14:32:21;98889.94;;;12.03;64.05
22018;BME280;11173;51.050;7.108;2023-11-19T14:42:21;98882.81;;;11.89;65.95
22018;BME280;11173;51.050;7.108;2023-11-19T14:52:22;98870.22;;;11.85;64.23
22018;BME280;11173;51.050;7.108;2023-11-19T15:02:23;98871.47;;;11.84;63.20
22018;BME280;11173;51.050;7.108;2023-11-19T15:12:23;98890.19;;;11.96;63.17
22018;BME280;11173;51.050;7.108;2023-11-19T15:22:23;98882.28;;;11.94;61.24
22018;BME280;11173;51.050;7.108;2023-11-19T15:32:24;98902.50;;;11.86;63.18
22018;BME280;11173;51.050;7.108;2023-11-19T15:42:24;98897.91;;;11.66;64.87
22018;BME280;11173;51.050;7.108;2023-11-19T15:52:24;98907.91;;;11.51;65.26
22018;BME280;11173;51.050;7.108;2023-11-19T16:02:26;98904.31;;;11.12;67.01
22018;BME280;11173;51.050;7.108;2023-11-19T16:12:27;98903.00;;;10.87;68.79
22018;BME280;11173;51.050;7.108;2023-11-19T16:22:27;98896.63;;;10.74;70.25
22018;BME280;11173;51.050;7.108;2023-11-19T16:32:27;98903.91;;;10.68;70.90
22018;BME280;11173;51.050;7.108;2023-11-19T16:42:28;98901.50;;;10.70;71.25
22018;BME280;11173;51.050;7.108;2023-11-19T16:52:28;98902.91;;;10.62;71.06
22018;BME280;11173;51.050;7.108;2023-11-19T17:02:28;98903.44;;;10.57;71.96
22018;BME280;11173;51.050;7.108;2023-11-19T17:12:30;98913.00;;;10.55;72.09
22018;BME280;11173;51.050;7.108;2023-11-19T17:22:36;98907.44;;;10.55;72.54
22018;BME280;11173;51.050;7.108;2023-11-19T17:32:38;98905.25;;;10.63;72.20
22018;BME280;11173;51.050;7.108;2023-11-19T17:42:38;98903.81;;;10.71;71.62
22018;BME280;11173;51.050;7.108;2023-11-19T17:52:39;98889.81;;;10.75;71.79
22018;BME280;11173;51.050;7.108;2023-11-19T18:02:43;98880.59;;;10.78;72.59
22018;BME280;11173;51.050;7.108;2023-11-19T18:12:44;98890.06;;;10.81;71.52
22018;BME280;11173;51.050;7.108;2023-11-19T18:22:45;98879.09;;;10.73;70.27
22018;BME280;11173;51.050;7.108;2023-11-19T18:32:47;98892.94;;;10.77;72.34
22018;BME280;11173;51.050;7.108;2023-11-19T18:42:48;98885.47;;;10.74;71.22
22018;BME280;11173;51.050;7.108;2023-11-19T18:52:48;98880.00;;;10.70;70.36
22018;BME280;11173;51.050;7.108;2023-11-19T19:02:49;98884.66;;;10.73;69.73
22018;BME280;11173;51.050;7.108;2023-11-19T19:12:51;98875.97;;;10.71;70.17
22018;BME280;11173;51.050;7.108;2023-11-19T19:22:52;98880.84;;;10.67;70.01
22018;BME280;11173;51.050;7.108;2023-11-19T19:32:52;98880.28;;;10.60;70.97
22018;BME280;11173;51.050;7.108;2023-11-19T19:42:52;98866.22;;;10.50;71.05
22018;BME280;11173;51.050;7.108;2023-11-19T19:52:53;98884.44;;;10.22;71.97
22018;BME280;11173;51.050;7.108;2023-11-19T20:02:55;98870.63;;;10.02;73.16
22018;BME280;11173;51.050;7.108;2023-11-19T20:12:55;98869.03;;;10.01;73.62
22018;BME280;11173;51.050;7.108;2023-11-19T20:22:56;98868.97;;;10.05;74.01
22018;BME280;11173;51.050;7.108;2023-11-19T20:32:57;98866.34;;;10.14;74.25
22018;BME280;11173;51.050;7.108;2023-11-19T20:42:57;98868.59;;;10.19;73.53
22018;BME280;11173;51.050;7.108;2023-11-19T20:52:57;98880.28;;;10.14;73.42
22018;BME280;11173;51.050;7.108;2023-11-19T21:02:58;98885.31;;;10.03;74.09
22018;BME280;11173;51.050;7.108;2023-11-19T21:12:58;98889.56;;;10.07;74.09
22018;BME280;11173;51.050;7.108;2023-11-19T21:23:01;98891.56;;;10.07;74.44
22018;BME280;11173;51.050;7.108;2023-11-19T21:33:01;98892.53;;;10.00;74.27
22018;BME280;11173;51.050;7.108;2023-11-19T21:43:02;98881.84;;;9.99;74.71
22018;BME280;11173;51.050;7.108;2023-11-19T21:53:02;98893.91;;;9.92;75.07
22018;BME280;11173;51.050;7.108;2023-11-19T22:03:03;98891.66;;;9.87;75.74
22018;BME280;11173;51.050;7.108;2023-11-19T22:13:03;98888.78;;;9.90;75.79
22018;BME280;11173;51.050;7.108;2023-11-19T22:23:04;98885.38;;;10.15;74.76
22018;BME280;11173;51.050;7.108;2023-11-19T22:33:04;98896.34;;;10.23;74.77
22018;BME280;11173;51.050;7.108;2023-11-19T22:43:07;98908.53;;;10.12;75.11
22018;BME280;11173;51.050;7.108;2023-11-19T22:53:07;98908.09;;;10.14;75.21
22018;BME280;11173;51.050;7.108;2023-11-19T23:03:08;98921.81;;;10.05;74.88
22018;BME280;11173;51.050;7.108;2023-11-19T23:13:10;98929.72;;;9.90;75.69
22018;BME280;11173;51.050;7.108;2023-11-19T23:23:10;98921.63;;;9.79;76.18
22018;BME280;11173;51.050;7.108;2023-11-19T23:33:11;98905.56;;;9.70;76.40
22018;BME280;11173;51.050;7.108;2023-11-19T23:43:11;98919.75;;;9.76;76.81
22018;BME280;11173;51.050;7.108;2023-11-19T23:53:12;98917.38;;;9.74;77.08
